createdAt,value
2018-07-02T00:00:07.478Z,8.20
2018-07-02T00:02:35.766Z,8.10
2018-07-02T00:05:04.117Z,8.00
2018-07-02T00:07:32.385Z,8.00
2018-07-02T00:10:00.704Z,8.10
2018-07-02T00:12:29.021Z,8.10
2018-07-02T00:14:57.314Z,8.00
2018-07-02T00:17:25.621Z,8.00
2018-07-02T00:19:53.897Z,7.90
2018-07-02T00:22:22.209Z,7.80
2018-07-02T00:24:50.505Z,7.60
2018-07-02T00:27:18.805Z,7.40
2018-07-02T00:29:47.076Z,7.30
2018-07-02T00:32:15.381Z,7.20
2018-07-02T00:34:43.675Z,7.10
2018-07-02T00:37:11.974Z,7.00
2018-07-02T00:42:08.346Z,7.00
2018-07-02T00:44:36.649Z,7.00
2018-07-02T00:47:04.949Z,7.00
2018-07-02T00:49:33.242Z,6.90
2018-07-02T00:52:01.609Z,6.90
2018-07-02T00:54:29.961Z,6.80
2018-07-02T00:56:58.275Z,6.70
2018-07-02T00:59:26.563Z,6.60
2018-07-02T01:01:54.911Z,6.50
2018-07-02T01:04:23.226Z,6.50
2018-07-02T01:06:51.549Z,6.50
2018-07-02T01:09:19.828Z,6.60
2018-07-02T01:14:16.185Z,6.80
2018-07-02T01:16:44.503Z,6.80
2018-07-02T01:19:12.777Z,6.90
2018-07-02T01:21:41.048Z,6.90
2018-07-02T01:24:09.354Z,6.80
2018-07-02T01:26:37.671Z,6.80
2018-07-02T01:29:05.996Z,6.80
2018-07-02T01:31:34.273Z,6.80
2018-07-02T01:34:02.578Z,6.80
2018-07-02T01:36:30.853Z,6.70
2018-07-02T01:38:59.157Z,6.70
2018-07-02T01:41:27.462Z,6.60
2018-07-02T01:43:55.781Z,6.60
2018-07-02T01:46:24.068Z,6.60
2018-07-02T01:48:52.385Z,6.70
2018-07-02T01:51:20.685Z,6.70
2018-07-02T01:53:48.989Z,6.60
2018-07-02T01:56:17.266Z,6.60
2018-07-02T01:58:45.558Z,6.50
2018-07-02T02:01:13.849Z,6.40
2018-07-02T02:03:42.170Z,6.40
2018-07-02T02:06:10.461Z,6.40
2018-07-02T02:08:38.761Z,6.30
2018-07-02T02:11:07.022Z,6.30
2018-07-02T02:13:35.353Z,6.30
2018-07-02T02:16:03.650Z,6.30
2018-07-02T02:18:31.947Z,6.20
2018-07-02T02:21:00.254Z,6.10
2018-07-02T02:23:28.540Z,6.10
2018-07-02T02:25:56.808Z,6.10
2018-07-02T02:28:25.099Z,6.10
2018-07-02T02:30:53.404Z,6.00
2018-07-02T02:33:21.735Z,6.10
2018-07-02T02:35:50.010Z,6.10
2018-07-02T02:38:18.295Z,6.10
2018-07-02T02:40:46.582Z,6.10
2018-07-02T02:43:14.858Z,6.00
2018-07-02T02:45:43.147Z,6.00
2018-07-02T02:48:11.417Z,6.00
2018-07-02T02:50:39.707Z,6.00
2018-07-02T02:53:08.017Z,6.00
2018-07-02T02:55:36.330Z,6.00
2018-07-02T02:58:05.222Z,6.00
2018-07-02T03:00:33.522Z,6.00
2018-07-02T03:03:01.806Z,6.00
2018-07-02T05:13:53.365Z,17.20
2018-07-02T05:16:21.695Z,17.30
2018-07-02T05:18:49.993Z,17.30
2018-07-02T05:21:18.294Z,17.30
2018-07-02T05:23:46.586Z,17.20
2018-07-02T05:26:14.925Z,17.20
2018-07-02T05:28:43.242Z,17.50
2018-07-02T05:31:11.524Z,17.80
2018-07-02T05:33:39.832Z,18.10
2018-07-02T05:36:08.107Z,18.40
2018-07-02T05:38:36.391Z,18.60
2018-07-02T05:41:04.671Z,18.80
2018-07-02T05:43:32.977Z,18.60
2018-07-02T05:46:01.253Z,18.50
2018-07-02T05:48:29.608Z,18.30
2018-07-02T05:50:57.862Z,18.30
2018-07-02T05:53:26.142Z,18.20
2018-07-02T05:55:54.413Z,18.00
2018-07-02T05:58:22.702Z,17.90
2018-07-02T06:00:50.961Z,17.80
2018-07-02T06:03:19.260Z,17.80
2018-07-02T06:05:47.550Z,17.90
2018-07-02T06:08:15.831Z,18.10
2018-07-02T06:10:44.089Z,18.30
2018-07-02T06:13:13.256Z,18.50
2018-07-02T06:15:41.552Z,18.80
2018-07-02T06:18:09.859Z,18.70
2018-07-02T06:20:38.158Z,18.80
2018-07-02T06:23:06.443Z,18.90
2018-07-02T06:25:34.713Z,19.00
2018-07-02T06:28:03.021Z,18.90
2018-07-02T06:30:31.376Z,19.10
2018-07-02T06:32:59.706Z,19.40
2018-07-02T06:35:27.991Z,19.40
2018-07-02T06:37:56.252Z,19.30
2018-07-02T06:40:24.556Z,19.50
2018-07-02T06:42:52.838Z,19.40
2018-07-02T06:45:21.198Z,19.60
2018-07-02T06:47:49.506Z,19.70
2018-07-02T06:50:17.821Z,19.70
2018-07-02T06:52:46.120Z,19.80
2018-07-02T06:57:42.499Z,20.50
2018-07-02T07:00:10.794Z,20.60
2018-07-02T07:02:39.070Z,20.80
2018-07-02T07:05:07.346Z,20.80
2018-07-02T07:07:35.606Z,20.90
2018-07-02T07:10:03.881Z,21.20
2018-07-02T07:12:32.137Z,21.30
2018-07-02T07:15:00.427Z,21.70
2018-07-02T07:17:28.686Z,22.00
2018-07-02T07:19:56.955Z,22.10
2018-07-02T07:22:25.221Z,22.20
2018-07-02T07:24:53.511Z,22.40
2018-07-02T07:27:21.856Z,22.60
2018-07-02T07:29:50.151Z,22.60
2018-07-02T07:34:46.457Z,22.70
2018-07-02T07:37:14.738Z,22.80
2018-07-02T07:39:43.018Z,23.10
2018-07-02T07:42:11.322Z,23.30
2018-07-02T07:44:39.617Z,23.40
2018-07-02T07:47:07.886Z,23.90
2018-07-02T07:49:36.146Z,24.30
2018-07-02T07:52:04.468Z,24.50
2018-07-02T07:54:32.790Z,24.80
2018-07-02T07:57:01.116Z,24.70
2018-07-02T07:59:29.432Z,24.50
2018-07-02T08:01:57.714Z,24.70
2018-07-02T08:04:25.977Z,24.70
2018-07-02T08:11:50.395Z,24.60
2018-07-02T08:14:18.799Z,24.70
2018-07-02T08:16:47.107Z,24.90
2018-07-02T08:19:15.456Z,24.80
2018-07-02T08:21:43.742Z,24.30
2018-07-02T08:24:12.030Z,24.60
2018-07-02T08:26:40.344Z,25.00
2018-07-02T08:29:08.625Z,25.20
2018-07-02T08:31:36.914Z,25.00
2018-07-02T08:34:05.208Z,24.30
2018-07-02T08:36:33.516Z,24.00
2018-07-02T08:39:02.631Z,24.40
2018-07-02T08:41:30.979Z,24.80
2018-07-02T08:43:59.265Z,25.30
2018-07-02T08:46:27.557Z,25.10
2018-07-02T08:48:55.842Z,24.40
2018-07-02T08:51:24.138Z,23.80
2018-07-02T08:53:52.418Z,23.30
2018-07-02T08:56:20.697Z,22.80
2018-07-02T08:58:49.007Z,22.60
2018-07-02T09:01:17.304Z,22.50
2018-07-02T09:03:46.809Z,22.10
2018-07-02T09:06:15.093Z,21.90
2018-07-02T09:08:43.446Z,21.70
2018-07-02T09:11:11.779Z,21.50
2018-07-02T09:13:40.082Z,22.00
2018-07-02T09:16:08.383Z,22.60
2018-07-02T09:18:36.674Z,23.10
2018-07-02T09:21:04.977Z,23.70
2018-07-02T09:23:33.246Z,24.20
2018-07-02T09:26:01.531Z,24.60
2018-07-02T09:28:29.793Z,24.60
2018-07-02T09:30:58.085Z,25.00
2018-07-02T09:33:26.359Z,25.40
2018-07-02T09:35:54.603Z,24.90
2018-07-02T09:40:51.074Z,23.90
2018-07-02T09:45:47.519Z,24.20
2018-07-02T09:48:15.926Z,23.80
2018-07-02T09:50:44.237Z,23.40
2018-07-02T09:55:40.586Z,23.00
2018-07-02T09:58:08.874Z,23.60
2018-07-02T10:00:37.740Z,23.90
2018-07-02T10:03:07.824Z,24.30
2018-07-02T10:05:36.165Z,24.30
2018-07-02T10:08:04.458Z,24.30
2018-07-02T10:10:32.772Z,23.90
2018-07-02T10:13:01.085Z,23.60
2018-07-02T10:15:29.380Z,23.00
2018-07-02T10:17:58.238Z,22.60
2018-07-02T10:20:26.580Z,22.40
2018-07-02T10:22:54.853Z,23.10
2018-07-02T10:27:51.173Z,24.50
2018-07-02T10:30:19.472Z,25.10
2018-07-02T10:32:47.772Z,24.90
2018-07-02T10:35:16.065Z,24.30
2018-07-02T10:37:44.440Z,23.70
2018-07-02T10:40:12.726Z,23.10
2018-07-02T10:42:41.089Z,22.70
2018-07-02T10:45:09.377Z,22.60
2018-07-02T10:47:37.720Z,22.50
2018-07-02T10:50:06.022Z,22.60
2018-07-02T10:52:35.459Z,23.30
2018-07-02T10:55:03.836Z,24.10
2018-07-02T11:00:00.156Z,25.30
2018-07-02T11:02:28.425Z,25.00
2018-07-02T11:04:56.763Z,24.40
2018-07-02T11:07:25.119Z,23.80
2018-07-02T11:09:53.414Z,23.40
2018-07-02T11:12:21.664Z,22.80
2018-07-02T11:14:49.972Z,22.80
2018-07-02T11:17:18.266Z,23.30
2018-07-02T11:19:46.521Z,23.60
2018-07-02T11:22:14.789Z,24.30
2018-07-02T11:24:43.228Z,25.00
2018-07-02T11:27:11.504Z,25.20
2018-07-02T11:29:39.778Z,25.40
2018-07-02T11:32:08.054Z,25.20
2018-07-02T11:34:36.335Z,24.20
2018-07-02T11:37:04.886Z,23.40
2018-07-02T11:39:33.187Z,23.40
2018-07-02T11:42:01.457Z,23.80
2018-07-02T11:44:30.757Z,24.00
2018-07-02T11:46:59.007Z,24.00
2018-07-02T11:49:27.274Z,24.00
2018-07-02T11:51:55.565Z,23.80
2018-07-02T11:54:23.869Z,23.70
2018-07-02T11:56:52.176Z,22.90
2018-07-02T11:59:20.638Z,22.40
2018-07-02T12:01:49.060Z,23.20
2018-07-02T12:04:17.356Z,23.20
2018-07-02T12:06:45.630Z,23.70
2018-07-02T12:09:14.497Z,23.60
2018-07-02T12:11:42.807Z,22.90
2018-07-02T12:14:11.058Z,22.60
2018-07-02T12:16:39.353Z,22.30
2018-07-02T12:19:07.622Z,22.40
2018-07-02T12:21:36.395Z,23.10
2018-07-02T12:24:04.742Z,23.20
2018-07-02T12:26:33.281Z,24.30
2018-07-02T12:31:29.562Z,26.00
2018-07-02T12:33:57.835Z,26.40
2018-07-02T12:38:54.127Z,26.00
2018-07-02T12:43:50.450Z,26.40
2018-07-02T12:46:18.776Z,26.10
2018-07-02T12:48:47.070Z,24.40
2018-07-02T12:51:15.362Z,23.20
2018-07-02T12:53:43.657Z,22.70
2018-07-02T12:56:11.946Z,22.50
2018-07-02T12:58:40.205Z,22.90
2018-07-02T13:01:08.493Z,23.80
2018-07-02T13:03:36.758Z,23.80
2018-07-02T13:06:05.195Z,24.10
2018-07-02T13:08:33.471Z,23.80
2018-07-02T13:11:01.755Z,23.50
2018-07-02T13:13:30.124Z,23.40
2018-07-02T13:15:58.382Z,23.10
2018-07-02T13:18:26.691Z,22.90
2018-07-02T13:20:55.044Z,22.90
2018-07-02T13:23:23.357Z,23.50
2018-07-02T13:25:51.789Z,23.60
2018-07-02T13:28:19.941Z,24.40
2018-07-02T13:30:48.214Z,25.00
2018-07-02T13:33:16.526Z,25.20
2018-07-02T13:35:44.810Z,25.40
2018-07-02T13:38:13.099Z,25.60
2018-07-02T13:40:41.407Z,25.90
2018-07-02T13:43:10.243Z,26.20
2018-07-02T13:45:38.577Z,26.40
2018-07-02T13:48:07.040Z,26.20
2018-07-02T13:50:35.338Z,25.80
2018-07-02T13:55:31.687Z,25.60
2018-07-02T13:57:59.981Z,25.60
2018-07-02T14:00:28.254Z,25.70
2018-07-02T14:02:56.550Z,25.20
2018-07-02T14:05:24.802Z,25.40
2018-07-02T14:07:53.105Z,25.30
2018-07-02T14:10:21.357Z,25.20
2018-07-02T14:12:49.641Z,25.20
2018-07-02T14:15:18.014Z,25.10
2018-07-02T14:17:46.295Z,25.10
2018-07-02T14:20:14.554Z,24.70
2018-07-02T14:22:42.870Z,24.60
2018-07-02T14:25:11.126Z,24.40
2018-07-02T14:27:39.406Z,24.30
2018-07-02T14:30:07.841Z,23.80
2018-07-02T14:32:36.102Z,23.80
2018-07-02T14:35:04.386Z,23.80
2018-07-02T14:37:32.661Z,23.80
2018-07-02T14:40:01.439Z,24.20
2018-07-02T14:42:29.792Z,24.10
2018-07-02T14:44:58.088Z,24.00
2018-07-02T14:47:26.401Z,23.50
2018-07-02T14:49:54.689Z,23.40
2018-07-02T14:52:22.941Z,22.90
2018-07-02T14:57:21.066Z,22.80
2018-07-02T14:59:49.350Z,23.00
2018-07-02T15:02:17.624Z,23.50
2018-07-02T15:04:45.918Z,23.50
2018-07-02T15:07:14.257Z,23.40
2018-07-02T15:09:42.623Z,23.40
2018-07-02T15:12:10.922Z,23.40
2018-07-02T15:14:39.209Z,23.30
2018-07-02T15:17:07.517Z,23.10
2018-07-02T15:19:35.806Z,22.90
2018-07-02T15:22:04.081Z,22.70
2018-07-02T15:24:32.369Z,22.70
2018-07-02T15:27:00.634Z,23.00
2018-07-02T15:29:29.158Z,23.00
2018-07-02T15:31:57.429Z,23.50
2018-07-02T15:34:25.722Z,24.30
2018-07-02T15:36:54.002Z,24.20
2018-07-02T15:39:22.347Z,24.20
2018-07-02T15:41:50.727Z,24.00
2018-07-02T15:46:46.999Z,23.40
2018-07-02T15:49:15.262Z,23.00
2018-07-02T15:51:43.549Z,22.80
2018-07-02T15:54:11.802Z,23.40
2018-07-02T15:56:40.088Z,24.00
2018-07-02T15:59:08.438Z,24.40
2018-07-02T16:01:36.782Z,24.70
2018-07-02T16:04:05.087Z,25.10
2018-07-02T16:06:33.374Z,25.60
2018-07-02T16:09:01.643Z,25.70
2018-07-02T16:11:31.073Z,25.30
2018-07-02T16:13:59.321Z,24.70
2018-07-02T16:18:55.956Z,23.00
2018-07-02T16:21:24.375Z,22.60
2018-07-02T16:23:52.674Z,22.30
2018-07-02T16:26:20.958Z,22.20
2018-07-02T16:28:49.343Z,22.60
2018-07-02T16:31:17.607Z,23.20
2018-07-02T16:33:45.990Z,23.70
2018-07-02T16:36:14.282Z,24.00
2018-07-02T16:38:42.905Z,24.20
2018-07-02T16:41:11.189Z,24.30
2018-07-02T16:43:39.463Z,24.40
2018-07-02T16:46:07.950Z,24.50
2018-07-02T16:48:41.553Z,24.70
2018-07-02T16:51:09.906Z,24.60
2018-07-02T16:53:38.954Z,24.30
2018-07-02T16:56:07.858Z,23.90
2018-07-02T16:58:36.258Z,23.50
2018-07-02T17:01:05.857Z,23.50
2018-07-02T17:03:34.282Z,23.50
2018-07-02T17:06:10.760Z,23.50
2018-07-02T17:08:47.838Z,23.50
2018-07-02T17:11:16.161Z,23.20
2018-07-02T17:13:44.442Z,23.30
2018-07-02T17:16:12.766Z,23.20
2018-07-02T17:18:44.466Z,23.10
2018-07-02T17:21:18.182Z,23.10
2018-07-02T17:23:57.234Z,22.90
2018-07-02T17:26:26.401Z,22.80
2018-07-02T17:31:36.996Z,22.90
2018-07-02T17:34:05.978Z,22.90
2018-07-02T17:36:43.432Z,22.90
2018-07-02T17:39:12.136Z,22.90
2018-07-02T17:41:43.599Z,22.80
2018-07-02T17:44:11.873Z,22.80
2018-07-02T17:46:40.174Z,23.00
2018-07-02T17:49:08.443Z,23.20
2018-07-02T17:54:04.953Z,23.20
2018-07-02T17:56:33.234Z,23.20
2018-07-02T17:59:01.519Z,23.20
2018-07-02T18:01:29.790Z,23.20
2018-07-02T18:03:58.075Z,23.10
2018-07-02T18:06:26.350Z,23.00
2018-07-02T18:08:54.687Z,22.90
2018-07-02T18:11:22.973Z,22.90
2018-07-02T18:13:51.280Z,22.70
2018-07-02T18:16:20.738Z,22.60
2018-07-02T18:18:49.033Z,22.60
2018-07-02T18:21:17.342Z,22.60
2018-07-02T18:23:45.661Z,22.60
2018-07-02T18:26:13.921Z,22.30
2018-07-02T18:28:42.202Z,22.10
2018-07-02T18:31:10.466Z,22.00
2018-07-02T18:33:38.737Z,21.80
2018-07-02T18:36:07.151Z,21.70
2018-07-02T18:38:35.431Z,21.50
2018-07-02T18:41:03.742Z,21.40
2018-07-02T18:46:10.333Z,21.10
2018-07-02T18:48:49.324Z,21.00
2018-07-02T18:51:33.829Z,20.80
2018-07-02T18:54:02.590Z,20.60
2018-07-02T18:56:30.862Z,20.50
2018-07-02T18:58:59.173Z,20.50
2018-07-02T19:01:27.443Z,20.60
2018-07-02T19:03:55.781Z,20.70
2018-07-02T19:06:24.122Z,20.70
2018-07-02T19:08:52.415Z,20.80
2018-07-02T19:11:20.733Z,20.90
2018-07-02T19:14:00.442Z,20.90
2018-07-02T19:18:57.302Z,20.90
2018-07-02T19:21:25.736Z,20.70
2018-07-02T19:23:54.033Z,20.40
2018-07-02T19:26:23.017Z,19.80
2018-07-02T19:28:56.849Z,19.20
2018-07-02T19:31:25.674Z,18.80
2018-07-02T19:33:53.988Z,18.40
2018-07-02T19:36:22.321Z,18.00
2018-07-02T19:38:50.587Z,17.60
2018-07-02T19:41:18.870Z,17.30
2018-07-02T19:43:47.186Z,17.00
2018-07-02T19:46:15.511Z,16.70
2018-07-02T19:48:43.781Z,16.50
2018-07-02T19:51:12.061Z,16.30
2018-07-02T19:53:40.453Z,16.10
2018-07-02T19:56:08.729Z,15.90
2018-07-02T19:58:38.218Z,15.80
2018-07-02T20:01:06.543Z,15.60
2018-07-02T20:03:35.089Z,15.50
2018-07-02T20:06:03.375Z,15.30
2018-07-02T20:08:31.669Z,15.10
2018-07-02T20:11:00.251Z,15.00
2018-07-02T20:13:28.556Z,14.90
2018-07-02T20:15:56.997Z,14.80
2018-07-02T20:18:25.289Z,14.50
2018-07-02T20:20:53.634Z,14.30
2018-07-02T20:23:21.949Z,14.10
2018-07-02T20:25:50.275Z,14.00
2018-07-02T20:28:18.557Z,14.00
2018-07-02T20:30:47.053Z,13.90
2018-07-02T20:33:15.454Z,13.90
2018-07-02T20:35:43.884Z,13.80
2018-07-02T20:38:12.285Z,13.70
2018-07-02T20:40:40.774Z,13.50
2018-07-02T20:43:09.130Z,13.40
2018-07-02T20:45:37.608Z,13.20
2018-07-02T20:48:06.345Z,13.20
2018-07-02T20:50:34.698Z,13.20
2018-07-02T20:53:03.110Z,13.20
2018-07-02T20:55:31.501Z,13.20
2018-07-02T20:57:59.881Z,13.20
2018-07-02T21:00:30.866Z,13.10
2018-07-02T21:03:00.368Z,13.00
2018-07-02T21:05:29.352Z,12.90
2018-07-02T21:07:58.064Z,12.70
2018-07-02T21:10:26.832Z,12.70
2018-07-02T21:12:55.403Z,12.50
2018-07-02T21:15:23.762Z,12.40
2018-07-02T21:17:52.046Z,12.40
2018-07-02T21:20:20.325Z,12.30
2018-07-02T21:22:48.674Z,12.20
2018-07-02T21:25:17.014Z,12.20
2018-07-02T21:27:45.373Z,12.10
2018-07-02T21:30:13.678Z,12.10
2018-07-02T21:32:41.963Z,12.00
2018-07-02T21:35:10.611Z,11.90
2018-07-02T21:37:38.906Z,11.80
2018-07-02T21:40:07.270Z,11.80
2018-07-02T21:42:35.658Z,11.80
2018-07-02T21:45:04.050Z,11.70
2018-07-02T21:47:32.354Z,11.70
2018-07-02T21:50:00.829Z,11.60
2018-07-02T21:52:29.158Z,11.60
2018-07-02T21:54:57.438Z,11.60
2018-07-02T21:57:25.752Z,11.60
2018-07-02T21:59:54.021Z,11.50
2018-07-02T22:04:50.356Z,11.50
2018-07-02T22:07:18.665Z,11.50
2018-07-02T22:12:14.981Z,11.40
2018-07-02T22:14:43.249Z,11.40
2018-07-02T22:17:11.533Z,11.30
2018-07-02T22:19:39.822Z,11.30
2018-07-02T22:22:08.087Z,11.20
2018-07-02T22:24:36.369Z,11.10
2018-07-02T22:27:04.740Z,10.90
2018-07-02T22:29:33.027Z,10.80
2018-07-02T22:32:01.297Z,10.80
2018-07-02T22:34:29.616Z,10.70
2018-07-02T22:36:57.833Z,10.60
2018-07-02T22:39:26.189Z,10.60
2018-07-02T22:41:54.441Z,10.60
2018-07-02T22:44:22.723Z,10.50
2018-07-02T22:46:51.057Z,10.50
2018-07-02T22:49:19.320Z,10.50
2018-07-02T22:51:47.583Z,10.50
2018-07-02T22:54:15.856Z,10.50
2018-07-02T22:56:44.118Z,10.50
2018-07-02T22:59:12.392Z,10.40
2018-07-02T23:01:40.686Z,10.40
2018-07-02T23:04:08.997Z,10.40
2018-07-02T23:06:37.254Z,10.30
2018-07-02T23:09:08.021Z,10.30
2018-07-02T23:11:36.273Z,10.30
2018-07-02T23:14:04.657Z,10.20
2018-07-02T23:16:32.932Z,10.20
2018-07-02T23:19:01.237Z,10.20
2018-07-02T23:21:29.494Z,10.10
2018-07-02T23:23:57.793Z,10.10
2018-07-02T23:26:26.061Z,10.10
2018-07-02T23:28:54.360Z,10.10
2018-07-02T23:31:22.655Z,10.20
2018-07-02T23:33:50.918Z,10.30
2018-07-02T23:36:19.192Z,10.40
2018-07-02T23:38:47.446Z,10.40
2018-07-02T23:41:15.782Z,10.40
2018-07-02T23:43:44.048Z,10.30
2018-07-02T23:46:12.326Z,10.20
2018-07-02T23:48:40.577Z,10.10
2018-07-02T23:51:08.866Z,10.00
2018-07-02T23:53:37.118Z,10.00
2018-07-02T23:56:05.697Z,10.00
2018-07-02T23:58:33.977Z,10.00
